AirNav   ProFlight Series 2 Aviation Headset
 
 1427 users online  

T78 Liberty Municipal Airport
Liberty, Texas, USA

GOING TO LIBERTY?


FAA INFORMATION EFFECTIVE 18 JUNE 2020

Location

FAA Identifier: T78
Lat/Long: 30-04-40.1000N 094-41-54.8000W
30-04.668333N 094-41.913333W
30.0778056,-94.6985556
(estimated)
Elevation: 69.5 ft. / 21.2 m (surveyed)
Variation: 05E (1995)
From city: 6 miles NE of LIBERTY, TX
Time zone: UTC -5 (UTC -6 during Standard Time)
Zip code: 77575

Airport Operations

Airport use: Open to the public
Activation date: 08/1959
Control tower: no
ARTCC: HOUSTON CENTER
FSS: MONTGOMERY COUNTY FLIGHT SERVICE STATION
FOR FP FILING CALL CXO FSS 1-800-992-7433.
NOTAMs facility: CXO (NOTAM-D service available)
Attendance: 0800-1800
Wind indicator: lighted
Segmented circle: yes
Lights: ACTVT MIRL RY 16/34 - CTAF.
Beacon: white-green (lighted land airport)
Operates sunset to sunrise.

Airport Communications

CTAF: 122.9
HOUSTON APPROACH: 119.7
HOUSTON DEPARTURE: 119.7
BLTWY RNAV DP: 119.7
BORRN RNAV DP: 119.7
DREMR DP: 119.7
HOODO RNAV DP: 119.7
HUDZY STAR: 120.05
INDIE RNAV DP: 119.7
KARRR RNAV DP: 119.7
LURIC RNAV DP: 119.7
MMALT RNAV DP: 119.7
RIICE STAR: 124.35
STRYA DP: 119.7
STYCK DP: 119.7
WATFO DP: 119.7
WHAEL STAR: 124.225
WYLSN RNAV DP: 119.7

Nearby radio navigation aids

VOR radial/distance  VOR name  Freq  Var
DASr197/7.3DAISETTA VORTAC116.9005E
MHFr358/32.0TRINITY VOR/DME113.6007E
IAHr073/34.4HUMBLE VORTAC116.6005E
BPTr276/36.3BEAUMONT VOR/DME114.5007E

 
NDB name  Hdg/Dist  Freq  Var  ID
GOODHUE264/25.336807EGDE --. -.. .

Airport Services

Fuel available: 100LL JET-A
24 HR SELF-SERVICE FUEL.
Parking: tiedowns
Airframe service: MAJOR
Powerplant service: MAJOR
Bottled oxygen: NONE
Bulk oxygen: NONE

Runway Information

Runway 16/34

Dimensions: 3801 x 75 ft. / 1159 x 23 m
Surface: asphalt, in fair condition
Weight bearing capacity: 
Single wheel: 10.0
Runway edge lights: medium intensity
RUNWAY 16  RUNWAY 34
Latitude: 30-04.971517N30-04.363658N
Longitude: 094-42.001210W094-41.824053W
Elevation: 68.9 ft.68.6 ft.
Traffic pattern: leftleft
Runway heading: 161 magnetic, 166 true341 magnetic, 346 true
Markings: nonprecision, in good conditionnonprecision, in good condition
Visual slope indicator: 2-light PAPI on left (3.00 degrees glide path)
Touchdown point: yes, no lightsyes, no lights
Obstructions: 31 ft. trees, 201 ft. from runway, 182 ft. right of centerline
31 FT TREES, 0-199 FT DSTC, 182 FT R.
95 ft. trees, 1245 ft. from runway, 13:1 slope to clear

Airport Ownership and Management from official FAA records

Ownership: Publicly-owned
Owner: CITY OF LIBERTY
1829 SAM HOUSTON
LIBERTY, TX 77575
Phone 936-587-4150
Manager: PHIL ROBERTSON
1829 SAM HOUSTON
LIBERTY, TX 77575
Phone (281) 660-2337

Airport Operational Statistics

Aircraft based on the field: 24
Single engine airplanes: 21
Multi engine airplanes: 3
    
Aircraft operations: avg 120/week *
58% transient general aviation
41% local general aviation
<1% military
* for 12-month period ending 22 April 2020

Additional Remarks

FOR CD CTC HOUSTON APCH AT 281-443-5844 TO CNL IFR CALL 281-443-5888.

Instrument Procedures

NOTE: All procedures below are presented as PDF files. If you need a reader for these files, you should download the free Adobe Reader.

NOT FOR NAVIGATION. Please procure official charts for flight.
FAA instrument procedures published for use from 18 June 2020 at 0901Z to 16 July 2020 at 0900Z.

 
STARs - Standard Terminal Arrivals
HUDZY FOUR   2 pages: [1] [2] (367KB)
OHIIO FOUR   download (321KB)
RIICE EIGHT   2 pages: [1] [2] (606KB)
WHAEL THREE   download (186KB)
 
IAPs - Instrument Approach Procedures
RNAV (GPS) RWY 16 **CHANGED**   download (165KB)
VOR-A **CHANGED**   download (150KB)
 
Departure Procedures
BLTWY SIX (RNAV)   download (148KB)
BORRN FOUR (RNAV)   2 pages: [1] [2] (296KB)
HOODO SIX (RNAV)   download (199KB)
INDIE SEVEN (RNAV)   download (174KB)
KARRR SIX (RNAV)   2 pages: [1] [2] (252KB)
LURIC SEVEN (RNAV)   download (194KB)
MMALT FIVE (RNAV)   download (209KB)
PALACIOS ONE   2 pages: [1] [2] (344KB)
STRYA SEVEN (RNAV)   download (181KB)
STYCK SEVEN (RNAV)   download (169KB)
WATFO FIVE (RNAV)   download (156KB)
WYLSN SEVEN (RNAV)   download (159KB)
NOTE: Special Take-Off Minimums/Departure Procedures apply   download

Other nearby airports with instrument procedures:

T00 - Chambers County Airport (19 nm S)
54T - RWJ Airpark (20 nm S)
KHPY - Baytown Airport (22 nm SW)
6R3 - Cleveland Municipal Airport (23 nm NW)
KBMT - Beaumont Municipal Airport (25 nm E)
 
Loc | Ops | Rwys | IFR | FBO | Links
Com | Nav | Svcs | Stats | Notes
Area around T78 (Liberty Municipal Airport)
 
Road maps at: MapQuest Bing Google
 
Aerial photo
WARNING: Photo may not be current or correct
Aerial photo of T78 (Liberty Municipal Airport)
Photo by David Lawrence flying a 78 Bellanca/17-30A
Photo taken 08-Nov-2014
looking north.

Do you have a better or more recent aerial photo of Liberty Municipal Airport that you would like to share? If so, please send us your photo.

 
Sectional chart

 
Airport diagram
CAUTION: Diagram may not be current
Diagram of T78 (Liberty Municipal Airport)
 
Airport distance calculator
Flying to Liberty Municipal Airport? Find the distance to fly.

From to T78

Sunrise and sunset
Times for 07-Jul-2020
 Local
(UTC-5)
 Zulu
(UTC)
Morning civil twilight05:5810:58
Sunrise06:2511:25
Sunset20:2301:23
Evening civil twilight20:5001:50

Current date and time
Zulu (UTC)  07-Jul-2020 16:42:45
Local (UTC-5)  07-Jul-2020 11:42:45
 
METAR
K6R3 
23nm NW 
071615Z AUTO 22007KT 7SM BKN029 SCT034 33/24 A2999 RMK AO2 LTG DSNT N THRU SE T03270236
KBMT 
25nm E 
071615Z AUTO 00000KT 10SM TS SCT031 SCT042 SCT055 29/27 A2998 RMK AO2 LTG DSNT W THRU NE T02900269
KT41 
31nm SW 
071615Z AUTO 21011G16KT 7SM TS SCT027 SCT034 SCT065 32/25 A2998 RMK AO2 LTG DSNT ALQDS T03230250
KIAH 
35nm W 
071553Z 22007KT 200V260 10SM SCT030 SCT180 BKN250 33/24 A2996 RMK AO2 SLP145 CB AND SHRA DSNT E-S MOV NE T03280239
KBPT 
35nm E 
071553Z 19011KT 9SM FEW023 SCT032 29/26 A2998 RMK AO2 LTG DSNT NW-NE SLP150 T02940256
KEFD 
38nm SW 
071610Z 21010KT 10SM -TSRA SCT020CB BKN250 31/25 A2997
KHOU 
40nm SW 
071553Z 22010KT 8SM -RA SCT025 BKN080 BKN250 29/26 A2997 RMK AO2 RAB09 SLP151 P0002 T02940256
KCXO 
41nm NW 
071553Z 21011KT 10SM FEW029 33/24 A2998 RMK AO2 SLP148 T03280244
KDWH 
44nm W 
071553Z 21010KT 10SM CLR 31/24 A2997 RMK AO2 SLP146 T03110239
KLVJ 
44nm SW 
071614Z AUTO 25007KT 9SM VCTS FEW027 FEW033 33/23 A2999 RMK AO2 LTG DSNT N AND NE T03280233
TAF
KIAH 
35nm W 
071614Z 0716/0818 22007KT P6SM VCTS SCT027CB SCT180 BKN250 FM071700 21006KT P6SM VCTS SCT030CB BKN040 BKN250 FM072300 17008KT P6SM SCT250 FM081500 19010KT P6SM SCT025
KBPT 
35nm E 
071511Z 0715/0812 20008KT P6SM VCTS BKN035CB BKN100 TEMPO 0715/0719 3SM TSRA BKN025CB OVC035 FM071900 20009KT P6SM VCTS SCT030CB BKN100 FM072300 19005KT P6SM BKN250
KEFD 
38nm SW 
071200Z 0712/0818 14006KT 9999 FEW010 SCT180 BKN250 QNH2994INS BECMG 0715/0716 19009KT 8000 -SHRA BKN040 QNH2996INS TEMPO 0716/0720 VRB10G15KT 4800 -TSRA BKN030CB BECMG 0720/0721 18009KT 9999 NSW FEW150 QNH2994INS BECMG 0805/0806 19006KT 9999 SCT015 QNH2996INS TX31/0722Z TN27/0712Z
KHOU 
40nm SW 
071343Z 0714/0812 17008KT P6SM VCSH SCT190 SCT250 FM071600 19009KT P6SM VCTS BKN035CB FM072200 17008KT P6SM SCT250 FM080900 19005KT P6SM SCT025
KCXO 
41nm NW 
071438Z 0715/0812 21009KT P6SM SCT017 BKN025 FM071600 19008KT P6SM VCTS BKN035CB FM072200 17007KT P6SM SCT250 FM080900 17005KT P6SM BKN015
NOTAMs
Click for the latest NOTAMs
NOTAMs are issued by the DoD/FAA and will open in a separate window not controlled by AirNav.

 

 
 

FBO, Fuel Providers, and Aircraft Ground Support

  
 Business Name 
 
 Contact 
 
 Services / Description 
 
Fuel Prices
 
Comments
  
Liberty Municipal Airport 281-660-2337
936-336-3684
[web site]
Aviation fuel, Aircraft parking (ramp or tiedown), Restrooms
More info and photos of Liberty Municipal Airport
independent
100LL Jet A
SS $3.80 $2.95 
 Updated 24-Jun-2020
 
   1 read write
SS=Self service
Update Fuel Prices
 

Would you like to see your business listed on this page?

 If your business provides an interesting product or service to pilots, flight crews, aircraft, or users of the Liberty Municipal Airport, you should consider listing it here.  To start the listing process, click on the button below
 
Add a business
 

Other Pages about Liberty Municipal Airport

www.cityofliberty.org/...
 
Update a link
 
Copyright © AirNav, LLC. All rights reserved. Privacy Policy  Contact